Time;durP1;ratioP1;P1;durP2;ratioP2;P2;SDS_P1;SDS_P2;PMS_P1;PMS_P2;Temp;Humidity;BMP_temperature;BMP_pressure;BME280_temperature;BME280_humidity;BME280_pressure;Samples;Min_cycle;Max_cycle;Signal;HPM_P1;HPM_P2
2022/05/27 00:00:31;;;;;;;1.50;1.13;;;;;;;11.82;100.00;96484.00;5011674;28;24479;-75
2022/05/27 00:02:58;;;;;;;1.17;0.90;;;;;;;11.94;100.00;96475.59;5011542;28;24423;-75
2022/05/27 00:05:24;;;;;;;1.45;1.00;;;;;;;12.04;100.00;96476.69;5011407;28;24451;-75
2022/05/27 00:07:51;;;;;;;3.40;1.30;;;;;;;12.03;100.00;96482.00;5011618;28;24984;-75
2022/05/27 00:10:18;;;;;;;1.85;1.17;;;;;;;12.01;100.00;96478.63;5011551;28;24449;-75
2022/05/27 00:12:45;;;;;;;1.63;1.15;;;;;;;12.05;100.00;96477.53;5011661;28;24420;-75
2022/05/27 00:15:12;;;;;;;1.70;1.10;;;;;;;12.00;100.00;96480.41;5011712;28;24420;-75
2022/05/27 00:17:39;;;;;;;1.73;1.27;;;;;;;11.92;100.00;96479.19;5011464;28;24432;-75
2022/05/27 00:20:07;;;;;;;1.63;1.10;;;;;;;11.90;100.00;96478.41;5011612;28;24494;-75
2022/05/27 00:22:33;;;;;;;2.22;1.10;;;;;;;11.85;100.00;96473.50;5011494;28;24431;-75
2022/05/27 00:25:00;;;;;;;2.60;1.02;;;;;;;11.70;100.00;96469.13;5011115;28;24428;-75
2022/05/27 00:27:27;;;;;;;1.80;1.10;;;;;;;11.83;100.00;96468.41;5011387;28;24421;-75
2022/05/27 00:29:53;;;;;;;4.63;1.35;;;;;;;11.79;100.00;96468.59;5010982;28;24452;-75
2022/05/27 00:32:21;;;;;;;1.30;1.05;;;;;;;11.59;100.00;96469.72;5010549;28;24423;-75
2022/05/27 00:34:47;;;;;;;1.95;1.40;;;;;;;11.46;100.00;96467.00;5011187;28;24416;-75
2022/05/27 00:37:14;;;;;;;2.78;1.27;;;;;;;11.35;100.00;96465.00;5011174;28;24548;-75
2022/05/27 00:39:41;;;;;;;1.45;1.10;;;;;;;11.35;100.00;96461.56;5011041;28;24417;-75
2022/05/27 00:42:08;;;;;;;1.98;1.15;;;;;;;11.36;100.00;96464.06;5011157;28;24486;-75
2022/05/27 00:44:35;;;;;;;1.80;1.05;;;;;;;11.35;100.00;96462.38;5010682;28;24436;-75
2022/05/27 00:47:05;;;;;;;6.65;1.20;;;;;;;11.37;100.00;96457.94;5011059;28;24822;-75
2022/05/27 00:49:36;;;;;;;1.27;0.90;;;;;;;11.38;100.00;96449.25;5011021;28;24464;-75
2022/05/27 00:52:06;;;;;;;1.65;0.90;;;;;;;11.41;100.00;96448.22;5010963;28;24950;-75
2022/05/27 00:54:34;;;;;;;2.75;1.25;;;;;;;11.36;100.00;96437.28;5011169;28;24420;-75
2022/05/27 00:57:04;;;;;;;2.58;1.00;;;;;;;11.42;100.00;96439.56;5011031;28;24423;-75
2022/05/27 00:59:37;;;;;;;3.23;1.23;;;;;;;11.12;100.00;96436.84;5011003;28;24422;-75
2022/05/27 01:02:04;;;;;;;2.25;1.38;;;;;;;11.29;100.00;96441.97;5011011;28;24416;-75
2022/05/27 01:04:32;;;;;;;2.58;1.10;;;;;;;11.28;100.00;96437.72;5010656;28;24425;-75
2022/05/27 01:07:00;;;;;;;1.65;1.23;;;;;;;11.03;100.00;96433.03;5010724;28;24960;-75
2022/05/27 01:09:29;;;;;;;1.50;1.00;;;;;;;10.83;100.00;96428.91;5011012;28;24452;-75
2022/05/27 01:12:17;;;;;;;1.70;1.17;;;;;;;10.88;100.00;96434.69;5010919;28;24515;-75
2022/05/27 01:14:57;;;;;;;1.83;1.10;;;;;;;11.04;100.00;96429.50;5010867;28;24452;-75
2022/05/27 01:17:38;;;;;;;2.40;1.02;;;;;;;11.11;100.00;96435.19;5010799;28;24425;-75
2022/05/27 01:20:19;;;;;;;2.38;1.10;;;;;;;11.06;100.00;96432.84;5010460;28;24470;-75
2022/05/27 01:23:19;;;;;;;1.20;0.95;;;;;;;11.09;100.00;96437.06;5010799;28;24851;-75
2022/05/27 01:26:09;;;;;;;3.23;1.37;;;;;;;11.15;100.00;96440.13;4997696;28;24592;-75
2022/05/27 01:28:40;;;;;;;2.70;1.27;;;;;;;11.10;100.00;96433.53;5010836;28;24421;-75
2022/05/27 01:31:37;;;;;;;1.50;1.10;;;;;;;10.80;100.00;96429.06;5010563;28;24459;-75
2022/05/27 01:34:13;;;;;;;3.95;1.15;;;;;;;10.79;100.00;96431.72;4975981;28;24432;-75
2022/05/27 01:36:46;;;;;;;2.10;1.27;;;;;;;10.57;100.00;96424.28;5010327;28;24840;-75
2022/05/27 01:39:28;;;;;;;1.65;1.20;;;;;;;10.50;100.00;96435.88;5010682;28;24429;-75
2022/05/27 01:42:03;;;;;;;13.20;1.43;;;;;;;10.40;100.00;96445.84;5010640;28;24424;-75
2022/05/27 01:44:35;;;;;;;2.25;1.38;;;;;;;10.45;100.00;96427.47;5014195;28;24416;-75
2022/05/27 01:47:05;;;;;;;1.33;1.10;;;;;;;10.56;100.00;96432.94;5014214;28;24774;-74
2022/05/27 01:49:36;;;;;;;3.83;1.47;;;;;;;10.61;100.00;96426.63;5014259;28;24555;-75
2022/05/27 01:52:07;;;;;;;1.90;1.17;;;;;;;10.69;100.00;96428.81;5014203;28;24427;-75
2022/05/27 01:54:43;;;;;;;1.90;1.17;;;;;;;10.75;100.00;96414.69;5014119;28;24423;-75
2022/05/27 01:57:14;;;;;;;4.73;1.40;;;;;;;10.80;100.00;96412.69;5013985;28;24427;-75
2022/05/27 01:59:55;;;;;;;1.80;1.02;;;;;;;10.78;100.00;96412.75;5013921;28;24428;-75
2022/05/27 02:02:27;;;;;;;2.95;1.65;;;;;;;10.50;100.00;96407.38;5014010;28;24941;-75
2022/05/27 02:04:58;;;;;;;2.35;1.17;;;;;;;10.55;100.00;96406.22;5013994;28;24417;-75
2022/05/27 02:07:28;;;;;;;5.20;1.60;;;;;;;10.49;100.00;96409.09;5014023;28;24632;-75
2022/05/27 02:10:00;;;;;;;1.90;1.30;;;;;;;10.45;100.00;96412.78;5013521;28;24457;-75
2022/05/27 02:12:31;;;;;;;1.92;1.25;;;;;;;10.46;100.00;96406.72;5014094;28;24559;-76
2022/05/27 02:15:03;;;;;;;4.10;1.40;;;;;;;10.49;100.00;96395.31;5013732;28;24424;-75
2022/05/27 02:17:35;;;;;;;2.17;1.20;;;;;;;10.38;100.00;96396.75;5013845;28;24425;-75
2022/05/27 02:20:05;;;;;;;2.20;1.33;;;;;;;10.38;100.00;96383.81;5013651;28;24427;-75
2022/05/27 02:22:36;;;;;;;1.63;1.40;;;;;;;10.04;100.00;96397.59;5013553;28;24428;-75
2022/05/27 02:25:07;;;;;;;3.35;1.50;;;;;;;9.90;100.00;96393.13;5013621;28;24494;-75
2022/05/27 02:27:39;;;;;;;3.28;1.50;;;;;;;10.12;100.00;96385.13;5013925;28;24431;-75
2022/05/27 02:30:09;;;;;;;2.58;1.40;;;;;;;9.85;100.00;96396.84;5013523;28;24858;-75
2022/05/27 02:32:41;;;;;;;1.80;1.23;;;;;;;10.16;100.00;96394.41;5013409;28;24451;-75
2022/05/27 02:35:12;;;;;;;1.40;1.05;;;;;;;10.29;100.00;96386.03;5013095;28;24435;-75
2022/05/27 02:37:41;;;;;;;1.83;1.20;;;;;;;10.33;100.00;96393.53;5013590;28;24424;-75
2022/05/27 02:40:12;;;;;;;1.20;1.10;;;;;;;10.41;100.00;96388.78;5013372;28;24428;-75
2022/05/27 02:42:48;;;;;;;11.75;1.58;;;;;;;10.29;100.00;96393.78;5013396;28;24471;-75
2022/05/27 02:45:25;;;;;;;2.10;1.50;;;;;;;10.43;100.00;96380.97;5012830;28;24473;-75
2022/05/27 02:48:04;;;;;;;1.10;1.00;;;;;;;10.40;100.00;96386.28;5013404;28;24423;-75
2022/05/27 02:50:41;;;;;;;1.60;1.30;;;;;;;10.33;100.00;96385.78;5012954;28;24810;-75
2022/05/27 02:53:16;;;;;;;2.42;1.45;;;;;;;10.40;100.00;96375.94;5013168;28;24440;-75
2022/05/27 02:55:53;;;;;;;3.20;1.45;;;;;;;10.43;100.00;96368.03;5011922;28;24427;-75
2022/05/27 02:58:20;;;;;;;1.43;1.00;;;;;;;10.35;100.00;96372.75;5013219;28;24454;-75
2022/05/27 03:00:47;;;;;;;3.30;1.45;;;;;;;9.80;100.00;96385.91;5013074;28;24416;-75
2022/05/27 03:03:15;;;;;;;3.23;1.30;;;;;;;9.82;100.00;96384.88;5013391;28;24615;-75
2022/05/27 03:05:50;;;;;;;1.92;1.17;;;;;;;9.79;100.00;96384.19;5012714;28;24423;-75
2022/05/27 03:08:22;;;;;;;7.55;1.45;;;;;;;10.04;100.00;96373.47;5012835;28;24431;-75
2022/05/27 03:11:01;;;;;;;2.88;1.17;;;;;;;10.17;100.00;96369.34;5012760;28;24449;-75
2022/05/27 03:13:57;;;;;;;2.13;1.00;;;;;;;10.20;100.00;96366.59;5012591;28;24431;-75
2022/05/27 03:16:34;;;;;;;2.88;1.48;;;;;;;10.15;100.00;96381.50;4993371;28;24448;-75
2022/05/27 03:19:40;;;;;;;2.10;1.50;;;;;;;10.07;100.00;96381.06;5011794;28;24457;-75
2022/05/27 03:22:17;;;;;;;1.80;1.08;;;;;;;10.01;100.00;96381.38;4981153;28;24451;-75
2022/05/27 03:24:55;;;;;;;3.92;1.60;;;;;;;10.10;100.00;96375.75;5011449;28;24425;-75
2022/05/27 03:27:33;;;;;;;2.25;1.50;;;;;;;10.03;100.00;96377.81;5011459;28;24417;-75
2022/05/27 03:30:05;;;;;;;2.67;1.38;;;;;;;10.01;100.00;96381.38;5010932;28;24475;-75
2022/05/27 03:32:41;;;;;;;1.87;1.20;;;;;;;10.18;100.00;96379.59;5010811;28;24547;-75
2022/05/27 03:35:16;;;;;;;2.87;1.30;;;;;;;10.28;100.00;96372.25;5010808;28;24514;-75
2022/05/27 03:37:49;;;;;;;1.70;1.17;;;;;;;10.18;100.00;96384.78;5010638;28;24786;-75
2022/05/27 03:40:21;;;;;;;2.28;1.38;;;;;;;10.29;100.00;96384.25;5012054;28;24483;-75
2022/05/27 03:42:48;;;;;;;2.95;1.48;;;;;;;10.13;100.00;96384.19;5012369;28;24424;-75
2022/05/27 03:45:17;;;;;;;2.08;1.33;;;;;;;10.36;100.00;96384.78;5011938;28;24424;-75
2022/05/27 03:47:44;;;;;;;2.30;1.33;;;;;;;10.48;100.00;96391.06;5012031;28;24934;-75
2022/05/27 03:50:16;;;;;;;3.55;1.30;;;;;;;10.52;100.00;96383.06;5012337;28;24456;-75
2022/05/27 03:52:45;;;;;;;2.42;1.27;;;;;;;10.70;100.00;96389.03;5011959;28;24420;-75
2022/05/27 03:55:15;;;;;;;4.10;1.33;;;;;;;10.55;100.00;96385.50;5011609;28;24841;-76
2022/05/27 03:57:42;;;;;;;2.28;1.48;;;;;;;10.62;100.00;96391.19;5011817;28;24958;-76
2022/05/27 04:00:10;;;;;;;3.15;1.30;;;;;;;10.71;100.00;96395.88;5011750;28;24428;-75
2022/05/27 04:02:37;;;;;;;3.15;1.65;;;;;;;10.66;100.00;96393.53;5011568;28;24425;-75
2022/05/27 04:05:04;;;;;;;3.17;1.47;;;;;;;10.84;100.00;96394.31;5011546;28;24432;-75
2022/05/27 04:07:32;;;;;;;4.25;1.92;;;;;;;10.94;100.00;96394.66;5011759;28;24950;-75
2022/05/27 04:09:59;;;;;;;3.85;1.95;;;;;;;11.06;100.00;96395.75;5011429;28;24486;-75
2022/05/27 04:12:25;;;;;;;2.07;1.63;;;;;;;11.18;100.00;96391.63;5011679;28;24467;-75
2022/05/27 04:14:52;;;;;;;2.75;1.77;;;;;;;11.24;100.00;96392.13;5011754;28;25073;-75
2022/05/27 04:17:30;;;;;;;2.65;1.40;;;;;;;11.31;100.00;96396.06;5011629;28;24420;-75
2022/05/27 04:19:57;;;;;;;2.70;1.90;;;;;;;11.23;100.00;96393.03;5011609;28;24531;-75
2022/05/27 04:22:23;;;;;;;2.90;1.73;;;;;;;11.25;100.00;96391.19;5011341;28;24976;-75
2022/05/27 04:24:51;;;;;;;2.67;1.95;;;;;;;11.28;100.00;96396.22;5011242;28;24677;-75
2022/05/27 04:27:20;;;;;;;3.53;2.10;;;;;;;11.33;100.00;96396.78;5011345;28;24420;-75
2022/05/27 04:29:48;;;;;;;3.38;1.85;;;;;;;11.23;100.00;96393.03;5011236;28;24977;-75
2022/05/27 04:32:15;;;;;;;2.55;1.55;;;;;;;11.37;100.00;96385.31;5011305;28;24603;-75
2022/05/27 04:34:42;;;;;;;2.47;1.70;;;;;;;11.48;100.00;96383.88;5011338;28;24420;-75
2022/05/27 04:37:09;;;;;;;3.28;1.70;;;;;;;11.60;100.00;96384.00;5011522;28;24416;-75
2022/05/27 04:39:36;;;;;;;5.00;2.15;;;;;;;11.72;100.00;96384.28;5011123;28;24439;-75
2022/05/27 04:42:05;;;;;;;5.10;2.10;;;;;;;11.79;100.00;96385.56;5011078;28;24474;-75
2022/05/27 04:44:31;;;;;;;3.15;1.90;;;;;;;11.68;100.00;96387.94;5010732;28;24825;-75
2022/05/27 04:46:57;;;;;;;7.45;2.35;;;;;;;11.60;100.00;96383.19;5011155;28;24416;-75
2022/05/27 04:52:08;;;;;;;4.30;1.70;;;;;;;11.68;100.00;96381.00;5010879;28;25042;-75
2022/05/27 04:54:35;;;;;;;3.15;2.10;;;;;;;11.73;100.00;96384.16;5010656;28;24519;-75
2022/05/27 04:57:01;;;;;;;2.80;1.75;;;;;;;11.78;100.00;96378.72;5011062;28;24766;-75
2022/05/27 04:59:29;;;;;;;3.05;1.60;;;;;;;11.94;100.00;96381.28;5010725;28;24984;-75
2022/05/27 05:01:56;;;;;;;3.15;1.85;;;;;;;12.04;100.00;96374.63;5010945;28;24802;-75
2022/05/27 05:04:22;;;;;;;2.65;2.00;;;;;;;12.02;100.00;96392.91;5010799;28;24474;-75
2022/05/27 05:06:48;;;;;;;3.00;1.80;;;;;;;12.01;100.00;96391.19;5010771;28;24416;-75
2022/05/27 05:09:15;;;;;;;2.47;1.90;;;;;;;12.15;100.00;96393.00;5010575;28;25011;-75
2022/05/27 05:11:41;;;;;;;3.20;1.90;;;;;;;12.24;100.00;96402.03;5010757;28;24443;-75
2022/05/27 05:14:08;;;;;;;2.80;1.77;;;;;;;12.16;100.00;96402.44;5010561;28;24486;-75
2022/05/27 05:16:36;;;;;;;3.10;2.05;;;;;;;12.10;100.00;96403.66;5010357;28;24427;-75
2022/05/27 05:19:02;;;;;;;3.90;2.22;;;;;;;12.14;100.00;96400.88;5010408;28;24420;-75
2022/05/27 05:21:28;;;;;;;3.63;2.20;;;;;;;12.07;100.00;96397.81;5010501;28;24500;-75
2022/05/27 05:23:55;;;;;;;2.58;1.50;;;;;;;12.02;100.00;96400.69;5010321;28;24578;-75
2022/05/27 05:26:21;;;;;;;2.80;1.80;;;;;;;12.14;100.00;96393.09;5010707;28;24427;-75
2022/05/27 05:28:48;;;;;;;3.93;2.03;;;;;;;12.27;100.00;96392.28;5010640;28;24421;-75
2022/05/27 05:31:16;;;;;;;2.95;1.80;;;;;;;12.23;100.00;96403.75;5010421;28;24973;-75
2022/05/27 05:33:44;;;;;;;3.95;2.00;;;;;;;12.21;100.00;96405.63;5010289;28;24451;-75
2022/05/27 05:36:10;;;;;;;3.45;1.83;;;;;;;12.39;100.00;96395.09;5010275;28;24415;-75
2022/05/27 05:38:37;;;;;;;2.40;1.88;;;;;;;12.43;100.00;96400.00;5010684;28;24829;-75
2022/05/27 05:41:04;;;;;;;3.17;1.90;;;;;;;12.44;100.00;96403.41;5010593;28;24467;-75
2022/05/27 05:43:31;;;;;;;3.88;2.15;;;;;;;12.49;100.00;96411.75;5010487;28;24420;-75
2022/05/27 05:45:57;;;;;;;3.90;2.77;;;;;;;12.63;100.00;96410.94;5010111;28;24527;-75
2022/05/27 05:48:24;;;;;;;3.70;2.30;;;;;;;12.66;100.00;96400.38;5010443;28;24425;-75
2022/05/27 05:50:52;;;;;;;6.53;2.55;;;;;;;12.68;100.00;96407.16;5009972;28;24456;-75
2022/05/27 05:53:19;;;;;;;6.32;2.47;;;;;;;12.74;100.00;96405.91;5010587;28;24427;-75
2022/05/27 05:55:45;;;;;;;3.28;1.98;;;;;;;12.71;100.00;96406.94;5010185;28;24427;-75
2022/05/27 05:58:12;;;;;;;4.75;2.40;;;;;;;12.70;100.00;96404.44;5010304;28;24424;-74
2022/05/27 06:00:38;;;;;;;7.13;3.03;;;;;;;12.71;100.00;96403.50;5010258;28;24440;-74
2022/05/27 06:03:05;;;;;;;5.15;2.63;;;;;;;12.73;100.00;96410.28;5010338;28;24431;-74
2022/05/27 06:05:32;;;;;;;5.27;2.77;;;;;;;12.78;100.00;96407.41;5009778;28;24423;-75
2022/05/27 06:08:00;;;;;;;3.85;2.45;;;;;;;12.79;100.00;96399.53;5010422;28;24425;-75
2022/05/27 06:10:27;;;;;;;4.80;2.40;;;;;;;12.83;100.00;96395.81;5010093;28;24540;-74
2022/05/27 06:12:54;;;;;;;4.80;2.30;;;;;;;12.79;100.00;96389.13;5010207;28;24424;-75
2022/05/27 06:15:21;;;;;;;4.68;2.67;;;;;;;12.91;100.00;96402.31;5010064;28;24787;-75
2022/05/27 06:17:48;;;;;;;4.00;2.30;;;;;;;12.88;100.00;96407.69;5010026;28;24427;-75
2022/05/27 06:20:14;;;;;;;3.22;1.95;;;;;;;12.87;100.00;96399.06;5010071;28;24466;-75
2022/05/27 06:22:40;;;;;;;5.18;2.35;;;;;;;12.97;100.00;96407.94;5010239;28;24416;-75
2022/05/27 06:25:09;;;;;;;6.97;2.60;;;;;;;12.94;100.00;96405.53;5009989;28;24496;-75
2022/05/27 06:27:35;;;;;;;4.32;2.15;;;;;;;12.78;100.00;96415.19;5010104;28;24424;-75
2022/05/27 06:35:32;;;;;;;5.05;2.67;;;;;;;12.88;100.00;96410.28;5013225;28;24459;-75
2022/05/27 06:37:58;;;;;;;6.30;3.07;;;;;;;12.78;100.00;96413.44;5013513;28;24459;-74
2022/05/27 06:40:26;;;;;;;5.97;2.55;;;;;;;12.71;100.00;96422.53;5013219;28;24463;-75
2022/05/27 06:42:52;;;;;;;3.93;2.27;;;;;;;12.69;100.00;96419.19;5013159;28;24973;-75
2022/05/27 06:45:19;;;;;;;4.22;2.67;;;;;;;12.66;100.00;96429.78;5013340;28;24420;-75
2022/05/27 06:47:45;;;;;;;4.10;2.72;;;;;;;12.75;100.00;96433.56;5013318;28;24433;-75
2022/05/27 06:50:12;;;;;;;4.80;2.60;;;;;;;12.65;100.00;96432.47;5013009;28;24533;-75
2022/05/27 06:52:40;;;;;;;4.18;2.40;;;;;;;12.71;100.00;96432.91;5012939;28;24970;-75
2022/05/27 06:55:08;;;;;;;5.68;2.70;;;;;;;12.75;100.00;96429.22;5012780;28;24825;-75
2022/05/27 06:57:36;;;;;;;3.05;2.38;;;;;;;12.79;100.00;96433.31;5012884;28;24421;-75
2022/05/27 07:00:03;;;;;;;6.57;2.88;;;;;;;12.74;100.00;96432.75;5013123;28;24427;-75
2022/05/27 07:02:30;;;;;;;4.88;2.60;;;;;;;12.71;100.00;96427.72;5013092;28;24471;-75
2022/05/27 07:04:56;;;;;;;4.63;2.63;;;;;;;12.74;100.00;96429.31;5012653;28;24790;-75
2022/05/27 07:07:28;;;;;;;4.93;2.70;;;;;;;12.69;100.00;96437.41;5012834;28;24790;-75
2022/05/27 07:09:54;;;;;;;3.25;2.38;;;;;;;12.77;100.00;96434.34;5012648;28;24427;-75
2022/05/27 07:12:21;;;;;;;5.85;2.38;;;;;;;12.87;100.00;96426.78;5012604;28;24447;-75
2022/05/27 07:14:48;;;;;;;4.82;2.53;;;;;;;12.89;100.00;96432.75;5012632;28;24424;-75
2022/05/27 07:17:15;;;;;;;2.80;2.25;;;;;;;12.99;100.00;96423.44;5012674;28;24479;-74
2022/05/27 07:19:42;;;;;;;6.18;2.25;;;;;;;12.91;100.00;96428.28;5012429;28;25203;-75
2022/05/27 07:22:10;;;;;;;5.05;2.60;;;;;;;12.86;100.00;96420.75;5012533;28;24423;-75
2022/05/27 07:24:37;;;;;;;4.30;2.50;;;;;;;12.87;100.00;96421.59;5012642;28;24474;-74
2022/05/27 07:27:04;;;;;;;3.95;2.20;;;;;;;12.90;100.00;96421.41;5012350;28;25001;-75
2022/05/27 07:29:30;;;;;;;3.88;2.42;;;;;;;12.96;100.00;96421.03;5012580;28;24424;-75
2022/05/27 07:31:58;;;;;;;4.43;2.45;;;;;;;12.87;100.00;96418.97;5012381;28;24440;-74
2022/05/27 07:34:24;;;;;;;4.70;2.28;;;;;;;12.93;100.00;96410.81;5012058;28;24425;-75
2022/05/27 07:36:51;;;;;;;7.90;2.42;;;;;;;12.96;100.00;96413.25;5012692;28;24424;-75
2022/05/27 07:39:17;;;;;;;5.32;2.92;;;;;;;13.07;100.00;96411.63;5012057;28;24524;-75
2022/05/27 07:41:44;;;;;;;7.07;2.80;;;;;;;13.12;100.00;96406.13;5011926;28;24527;-75
2022/05/27 07:44:10;;;;;;;4.35;2.15;;;;;;;13.38;100.00;96414.09;5011747;28;25037;-75
2022/05/27 07:46:39;;;;;;;4.13;2.20;;;;;;;13.38;100.00;96419.28;5012055;28;24424;-75
2022/05/27 07:49:07;;;;;;;4.45;2.30;;;;;;;13.43;100.00;96420.69;5011653;28;24451;-75
2022/05/27 07:51:34;;;;;;;4.25;2.22;;;;;;;13.49;100.00;96425.47;5011832;28;24444;-75
2022/05/27 07:54:00;;;;;;;6.30;2.37;;;;;;;13.62;100.00;96425.56;5011966;28;24476;-75
2022/05/27 07:56:27;;;;;;;5.63;2.10;;;;;;;13.72;100.00;96430.97;5012353;28;24476;-75
2022/05/27 07:58:54;;;;;;;4.15;1.90;;;;;;;13.69;100.00;96426.00;5011883;28;24404;-75
2022/05/27 08:01:21;;;;;;;5.18;2.33;;;;;;;13.38;100.00;96422.72;5011850;28;24425;-75
2022/05/27 08:03:47;;;;;;;5.85;2.05;;;;;;;13.52;100.00;96422.69;5011542;28;24412;-75
2022/05/27 08:06:15;;;;;;;4.13;2.27;;;;;;;13.43;100.00;96422.47;5011586;28;24423;-74
2022/05/27 08:08:42;;;;;;;4.60;2.17;;;;;;;13.56;100.00;96426.75;5011565;28;25030;-75
2022/05/27 08:11:08;;;;;;;5.18;2.40;;;;;;;13.40;100.00;96428.69;5011617;28;24783;-75
2022/05/27 08:13:36;;;;;;;3.08;2.03;;;;;;;13.18;100.00;96415.34;5011575;28;24419;-75
2022/05/27 08:16:03;;;;;;;3.95;1.90;;;;;;;13.19;100.00;96425.63;5011923;28;24427;-75
2022/05/27 08:18:29;;;;;;;6.65;2.63;;;;;;;13.32;100.00;96428.34;5011368;28;24954;-75
2022/05/27 08:20:56;;;;;;;5.47;2.30;;;;;;;13.40;100.00;96431.28;5011237;28;24965;-75
2022/05/27 08:23:24;;;;;;;6.77;2.20;;;;;;;13.43;100.00;96425.06;5011599;28;24464;-75
2022/05/27 08:25:51;;;;;;;3.13;1.83;;;;;;;13.49;100.00;96437.66;5011389;28;24522;-74
2022/05/27 08:28:18;;;;;;;3.80;1.90;;;;;;;13.67;100.00;96438.25;5011290;28;24799;-75
2022/05/27 08:30:44;;;;;;;6.83;2.27;;;;;;;13.51;100.00;96444.44;5011394;28;24569;-75
2022/05/27 08:33:11;;;;;;;7.80;1.98;;;;;;;13.43;100.00;96443.28;5011020;28;24440;-75
2022/05/27 08:38:34;;;;;;;3.97;2.00;;;;;;;13.27;100.00;96459.84;5011319;28;24492;-75
2022/05/27 08:41:30;;;;;;;3.00;1.60;;;;;;;13.56;100.00;96468.41;5011240;28;24428;-75
2022/05/27 08:44:16;;;;;;;3.72;2.00;;;;;;;13.51;100.00;96462.66;5010794;28;24432;-75
2022/05/27 08:46:50;;;;;;;2.80;1.63;;;;;;;13.60;100.00;96463.00;5010896;28;24999;-75
2022/05/27 08:49:22;;;;;;;3.80;1.75;;;;;;;13.60;100.00;96466.44;5011139;28;24439;-75
2022/05/27 08:51:53;;;;;;;6.00;2.00;;;;;;;13.48;100.00;96459.41;5010295;28;24447;-75
2022/05/27 08:54:25;;;;;;;4.57;2.00;;;;;;;13.58;100.00;96465.72;5010761;28;24743;-74
2022/05/27 08:59:41;;;;;;;5.75;2.47;;;;;;;13.74;100.00;96465.56;5010932;28;24428;-74
2022/05/27 09:02:18;;;;;;;3.03;1.70;;;;;;;14.07;100.00;96459.94;5011117;28;24428;-74
2022/05/27 09:04:51;;;;;;;3.30;1.60;;;;;;;14.22;100.00;96455.50;5010656;28;25073;-74
2022/05/27 09:07:40;;;;;;;5.55;1.83;;;;;;;14.55;100.00;96459.41;5010970;28;24431;-74
2022/05/27 09:10:13;;;;;;;6.75;2.28;;;;;;;14.80;100.00;96454.19;5010530;28;24980;-74
2022/05/27 09:12:46;;;;;;;2.38;1.58;;;;;;;15.18;100.00;96450.69;5010803;28;24440;-74
2022/05/27 09:15:37;;;;;;;4.53;1.63;;;;;;;14.83;100.00;96446.16;5010372;28;24443;-75
2022/05/27 09:18:12;;;;;;;5.87;1.67;;;;;;;14.93;100.00;96451.56;5007361;28;24451;-75
2022/05/27 09:20:49;;;;;;;2.97;1.50;;;;;;;14.87;100.00;96436.34;5010662;28;24822;-75
2022/05/27 09:23:41;;;;;;;8.15;1.50;;;;;;;14.71;98.56;96436.56;5010604;28;24488;-74
2022/05/27 09:26:16;;;;;;;2.22;1.17;;;;;;;14.49;100.00;96437.16;5010804;28;24802;-74
2022/05/27 09:28:53;;;;;;;4.20;1.55;;;;;;;14.82;96.64;96430.63;5010661;28;24663;-74
2022/05/27 09:31:35;;;;;;;4.72;1.40;;;;;;;14.87;98.79;96436.34;5010670;28;24412;-74
2022/05/27 09:34:02;;;;;;;3.85;1.80;;;;;;;15.24;96.33;96435.44;5010561;28;24424;-74
2022/05/27 09:36:35;;;;;;;4.63;1.75;;;;;;;15.03;93.31;96430.91;5010654;28;24420;-74
2022/05/27 09:39:05;;;;;;;6.95;1.70;;;;;;;14.76;94.85;96437.94;5010466;28;24430;-74
2022/05/27 09:41:40;;;;;;;2.33;1.30;;;;;;;14.99;93.63;96440.72;5010642;28;24791;-75
2022/05/27 09:44:17;;;;;;;3.15;1.50;;;;;;;15.06;90.54;96443.75;5010238;28;24420;-74
2022/05/27 09:46:44;;;;;;;3.00;1.40;;;;;;;15.46;89.32;96445.19;5010608;28;24451;-74
2022/05/27 09:51:43;;;;;;;3.13;1.27;;;;;;;15.84;86.82;96439.00;5007879;28;24888;-76
2022/05/27 09:54:24;;;;;;;1.70;1.08;;;;;;;15.69;86.99;96440.94;5010397;28;24782;-75
2022/05/27 09:57:02;;;;;;;2.58;1.50;;;;;;;16.02;84.75;96441.19;5010695;28;24797;-75
2022/05/27 09:59:36;;;;;;;2.88;1.20;;;;;;;16.03;84.28;96433.25;5010726;28;24448;-75
2022/05/27 10:02:21;;;;;;;1.88;1.17;;;;;;;16.41;81.51;96432.16;5010571;28;24431;-76
2022/05/27 10:04:53;;;;;;;2.40;1.07;;;;;;;16.72;78.47;96409.72;5013411;28;24421;-76
2022/05/27 10:07:26;;;;;;;1.85;1.00;;;;;;;16.96;76.24;96420.13;5014464;28;24417;-76
2022/05/27 10:09:54;;;;;;;1.83;1.00;;;;;;;16.75;77.12;96406.09;5014285;28;24428;-76
2022/05/27 10:12:35;;;;;;;1.67;1.00;;;;;;;16.76;79.26;96410.34;5014135;28;24440;-76
2022/05/27 10:15:02;;;;;;;2.63;1.02;;;;;;;17.32;77.02;96403.31;5013960;28;24543;-75
2022/05/27 10:17:32;;;;;;;1.60;0.80;;;;;;;17.73;73.73;96406.16;5013972;28;25133;-76
2022/05/27 10:20:17;;;;;;;1.85;0.80;;;;;;;18.07;71.97;96393.78;5014126;28;24436;-76
2022/05/27 10:22:58;;;;;;;5.40;0.90;;;;;;;17.73;73.02;96395.69;5014112;28;24571;-76
2022/05/27 10:25:32;;;;;;;2.05;1.10;;;;;;;17.89;71.23;96386.47;5013763;28;25047;-75
2022/05/27 10:27:59;;;;;;;1.88;0.80;;;;;;;17.97;70.88;96390.25;5013650;28;24505;-76
2022/05/27 10:30:28;;;;;;;3.20;1.10;;;;;;;17.54;72.16;96393.69;5013783;28;24427;-76
2022/05/27 10:32:56;;;;;;;1.00;0.73;;;;;;;17.03;76.61;96397.75;5013580;28;25000;-76
2022/05/27 10:35:34;;;;;;;2.28;1.00;;;;;;;17.03;74.81;96392.53;5013573;28;24547;-76
2022/05/27 10:38:13;;;;;;;1.92;1.13;;;;;;;17.05;74.16;96389.78;5013561;28;24428;-76
2022/05/27 10:40:47;;;;;;;0.95;0.70;;;;;;;17.65;73.03;96391.91;5013694;28;24421;-76
2022/05/27 10:43:29;;;;;;;2.47;1.00;;;;;;;17.87;71.24;96388.41;5013707;28;24429;-76
2022/05/27 10:45:58;;;;;;;4.13;0.90;;;;;;;17.77;71.56;96390.09;5013180;28;24420;-76
2022/05/27 10:48:40;;;;;;;2.25;1.10;;;;;;;17.33;74.47;96380.56;5015097;28;24423;-76
2022/05/27 10:51:18;;;;;;;1.95;1.08;;;;;;;16.79;72.84;96378.72;5017324;28;24752;-77
2022/05/27 10:54:06;;;;;;;2.50;0.82;;;;;;;17.07;72.56;96375.63;5014275;28;24805;-76
2022/05/27 10:56:42;;;;;;;4.63;0.85;;;;;;;17.83;70.08;96375.66;5013621;28;24424;-76
2022/05/27 11:02:22;;;;;;;1.90;0.93;;;;;;;18.01;70.39;96365.44;5013306;28;24882;-75
2022/05/27 11:05:07;;;;;;;2.37;1.00;;;;;;;17.42;70.27;96371.97;5012890;28;24429;-77
2022/05/27 11:07:42;;;;;;;3.07;0.87;;;;;;;17.27;73.13;96365.34;5012801;28;24509;-75
2022/05/27 11:10:29;;;;;;;4.73;1.27;;;;;;;17.27;71.77;96367.97;5013155;28;24427;-76
2022/05/27 11:16:23;;;;;;;1.25;0.90;;;;;;;17.81;71.42;96362.69;4951552;28;24473;-77
2022/05/27 11:19:04;;;;;;;2.07;0.90;;;;;;;17.62;71.66;96365.94;4952294;29;24474;-76
2022/05/27 11:21:46;;;;;;;1.67;1.00;;;;;;;17.91;70.85;96362.78;4990536;28;24451;-76
2022/05/27 11:24:42;;;;;;;1.95;1.00;;;;;;;17.75;71.58;96359.69;5012365;28;24436;-76
2022/05/27 11:27:23;;;;;;;3.83;1.17;;;;;;;17.82;72.35;96361.72;5012690;28;24428;-76
2022/05/27 11:30:04;;;;;;;3.38;1.23;;;;;;;17.58;70.51;96359.31;5014012;28;24518;-79
2022/05/27 11:33:05;;;;;;;1.77;0.90;;;;;;;17.73;72.20;96361.63;5012773;28;24444;-75
2022/05/27 11:35:43;;;;;;;1.90;0.90;;;;;;;17.87;70.92;96356.94;5012510;28;24420;-77
2022/05/27 11:38:42;;;;;;;3.30;0.90;;;;;;;17.83;71.88;96358.13;5012525;28;24423;-77
2022/05/27 11:41:14;;;;;;;1.85;0.85;;;;;;;17.77;71.49;96357.84;5012655;28;24416;-76
2022/05/27 11:43:47;;;;;;;1.35;0.90;;;;;;;17.79;71.05;96353.28;5012525;28;24517;-76
2022/05/27 11:46:43;;;;;;;1.75;1.00;;;;;;;17.83;72.77;96363.38;5012443;28;24431;-76
2022/05/27 11:49:41;;;;;;;2.20;0.75;;;;;;;18.21;70.92;96348.06;5012121;28;24504;-76
2022/05/27 11:52:22;;;;;;;1.95;0.98;;;;;;;17.65;74.31;96350.00;5010791;28;24444;-76
2022/05/27 11:55:04;;;;;;;2.50;0.93;;;;;;;17.80;74.58;96344.50;5012101;28;24818;-76
2022/05/27 11:57:46;;;;;;;1.60;0.90;;;;;;;18.01;72.43;96340.06;5011881;28;25027;-76
2022/05/27 12:00:17;;;;;;;1.70;0.90;;;;;;;18.20;71.50;96341.13;5012322;28;24463;-76
2022/05/27 12:02:53;;;;;;;1.40;0.70;;;;;;;18.30;71.01;96342.84;5012634;28;24470;-76
2022/05/27 12:05:26;;;;;;;0.70;0.60;;;;;;;18.43;69.62;96332.19;5011836;28;24460;-75
2022/05/27 12:08:00;;;;;;;1.15;0.90;;;;;;;17.72;73.76;96342.44;5011913;28;24436;-76
2022/05/27 12:10:31;;;;;;;2.70;1.00;;;;;;;18.00;73.83;96335.78;5012082;28;24435;-76